sensor_id;sensor_type;location;lat;lon;timestamp;P1;durP1;ratioP1;P2;durP2;ratioP2
74538;SDS011;66042;51.090;-115.340;2023-08-31T00:00:09;22.30;;;13.80;;
74538;SDS011;66042;51.090;-115.340;2023-08-31T00:02:39;20.20;;;13.20;;
74538;SDS011;66042;51.090;-115.340;2023-08-31T00:05:08;20.90;;;13.10;;
74538;SDS011;66042;51.090;-115.340;2023-08-31T00:07:36;18.60;;;13.00;;
74538;SDS011;66042;51.090;-115.340;2023-08-31T00:10:03;22.10;;;14.40;;
74538;SDS011;66042;51.090;-115.340;2023-08-31T00:12:35;19.20;;;14.30;;
74538;SDS011;66042;51.090;-115.340;2023-08-31T00:15:03;21.00;;;13.50;;
74538;SDS011;66042;51.090;-115.340;2023-08-31T00:17:30;23.40;;;16.10;;
74538;SDS011;66042;51.090;-115.340;2023-08-31T00:19:57;20.90;;;14.50;;
74538;SDS011;66042;51.090;-115.340;2023-08-31T00:22:23;23.40;;;15.60;;
74538;SDS011;66042;51.090;-115.340;2023-08-31T00:24:50;22.80;;;15.00;;
74538;SDS011;66042;51.090;-115.340;2023-08-31T00:27:17;22.60;;;15.20;;
74538;SDS011;66042;51.090;-115.340;2023-08-31T00:29:44;22.60;;;15.10;;
74538;SDS011;66042;51.090;-115.340;2023-08-31T00:32:15;25.50;;;15.30;;
74538;SDS011;66042;51.090;-115.340;2023-08-31T00:34:42;22.20;;;15.20;;
74538;SDS011;66042;51.090;-115.340;2023-08-31T00:37:08;22.80;;;15.30;;
74538;SDS011;66042;51.090;-115.340;2023-08-31T00:39:35;22.00;;;13.90;;
74538;SDS011;66042;51.090;-115.340;2023-08-31T00:42:03;25.50;;;16.30;;
74538;SDS011;66042;51.090;-115.340;2023-08-31T00:44:30;21.40;;;14.90;;
74538;SDS011;66042;51.090;-115.340;2023-08-31T00:46:57;25.70;;;17.30;;
74538;SDS011;66042;51.090;-115.340;2023-08-31T00:49:24;24.10;;;15.90;;
74538;SDS011;66042;51.090;-115.340;2023-08-31T00:51:51;26.30;;;17.00;;
74538;SDS011;66042;51.090;-115.340;2023-08-31T00:54:19;23.60;;;16.20;;
74538;SDS011;66042;51.090;-115.340;2023-08-31T00:56:53;24.70;;;15.90;;
74538;SDS011;66042;51.090;-115.340;2023-08-31T00:59:20;27.90;;;16.90;;
74538;SDS011;66042;51.090;-115.340;2023-08-31T01:05:02;24.80;;;16.40;;
74538;SDS011;66042;51.090;-115.340;2023-08-31T01:13:12;23.50;;;16.50;;
74538;SDS011;66042;51.090;-115.340;2023-08-31T01:15:45;24.40;;;16.50;;
74538;SDS011;66042;51.090;-115.340;2023-08-31T01:18:17;25.60;;;16.10;;
74538;SDS011;66042;51.090;-115.340;2023-08-31T01:23:54;26.90;;;16.80;;
74538;SDS011;66042;51.090;-115.340;2023-08-31T01:26:22;26.80;;;17.40;;
74538;SDS011;66042;51.090;-115.340;2023-08-31T01:28:51;26.30;;;17.30;;
74538;SDS011;66042;51.090;-115.340;2023-08-31T01:31:19;26.40;;;18.50;;
74538;SDS011;66042;51.090;-115.340;2023-08-31T01:33:46;27.50;;;17.70;;
74538;SDS011;66042;51.090;-115.340;2023-08-31T01:36:23;25.50;;;17.10;;
74538;SDS011;66042;51.090;-115.340;2023-08-31T01:41:43;27.80;;;18.00;;
74538;SDS011;66042;51.090;-115.340;2023-08-31T01:44:16;30.10;;;19.50;;
74538;SDS011;66042;51.090;-115.340;2023-08-31T01:46:47;26.80;;;17.80;;
74538;SDS011;66042;51.090;-115.340;2023-08-31T01:49:19;29.00;;;18.60;;
74538;SDS011;66042;51.090;-115.340;2023-08-31T01:51:47;31.10;;;20.50;;
74538;SDS011;66042;51.090;-115.340;2023-08-31T01:54:14;32.90;;;20.00;;
74538;SDS011;66042;51.090;-115.340;2023-08-31T01:56:41;26.10;;;18.00;;
74538;SDS011;66042;51.090;-115.340;2023-08-31T01:59:08;29.50;;;19.50;;
74538;SDS011;66042;51.090;-115.340;2023-08-31T02:01:35;30.60;;;19.40;;
74538;SDS011;66042;51.090;-115.340;2023-08-31T02:04:02;29.40;;;19.40;;
74538;SDS011;66042;51.090;-115.340;2023-08-31T02:06:29;31.70;;;19.50;;
74538;SDS011;66042;51.090;-115.340;2023-08-31T02:08:56;29.40;;;18.70;;
74538;SDS011;66042;51.090;-115.340;2023-08-31T02:11:23;28.40;;;18.70;;
74538;SDS011;66042;51.090;-115.340;2023-08-31T02:13:50;30.30;;;18.40;;
74538;SDS011;66042;51.090;-115.340;2023-08-31T02:16:17;28.70;;;19.00;;
74538;SDS011;66042;51.090;-115.340;2023-08-31T02:18:44;31.60;;;19.70;;
74538;SDS011;66042;51.090;-115.340;2023-08-31T02:21:11;31.90;;;19.60;;
74538;SDS011;66042;51.090;-115.340;2023-08-31T02:23:38;30.30;;;19.30;;
74538;SDS011;66042;51.090;-115.340;2023-08-31T02:26:06;32.70;;;19.80;;
74538;SDS011;66042;51.090;-115.340;2023-08-31T02:28:33;31.00;;;21.40;;
74538;SDS011;66042;51.090;-115.340;2023-08-31T02:31:01;30.90;;;20.00;;
74538;SDS011;66042;51.090;-115.340;2023-08-31T02:33:29;32.00;;;21.20;;
74538;SDS011;66042;51.090;-115.340;2023-08-31T02:35:56;34.50;;;20.20;;
74538;SDS011;66042;51.090;-115.340;2023-08-31T02:38:23;31.90;;;20.20;;
74538;SDS011;66042;51.090;-115.340;2023-08-31T02:40:50;34.00;;;21.00;;
74538;SDS011;66042;51.090;-115.340;2023-08-31T02:43:17;32.10;;;20.40;;
74538;SDS011;66042;51.090;-115.340;2023-08-31T02:45:44;36.20;;;20.50;;
74538;SDS011;66042;51.090;-115.340;2023-08-31T02:48:12;31.90;;;20.40;;
74538;SDS011;66042;51.090;-115.340;2023-08-31T02:50:39;35.70;;;19.90;;
74538;SDS011;66042;51.090;-115.340;2023-08-31T02:53:06;34.00;;;20.10;;
74538;SDS011;66042;51.090;-115.340;2023-08-31T02:55:33;33.30;;;19.60;;
74538;SDS011;66042;51.090;-115.340;2023-08-31T02:58:00;33.10;;;20.50;;
74538;SDS011;66042;51.090;-115.340;2023-08-31T03:00:27;31.50;;;19.90;;
74538;SDS011;66042;51.090;-115.340;2023-08-31T03:02:54;33.60;;;20.20;;
74538;SDS011;66042;51.090;-115.340;2023-08-31T03:05:21;36.30;;;20.30;;
74538;SDS011;66042;51.090;-115.340;2023-08-31T03:07:48;35.90;;;21.20;;
74538;SDS011;66042;51.090;-115.340;2023-08-31T03:10:15;35.70;;;20.00;;
74538;SDS011;66042;51.090;-115.340;2023-08-31T03:12:42;34.00;;;20.00;;
74538;SDS011;66042;51.090;-115.340;2023-08-31T03:15:09;32.40;;;20.20;;
74538;SDS011;66042;51.090;-115.340;2023-08-31T03:17:36;29.20;;;19.20;;
74538;SDS011;66042;51.090;-115.340;2023-08-31T03:20:03;33.50;;;20.50;;
74538;SDS011;66042;51.090;-115.340;2023-08-31T03:22:32;33.90;;;19.90;;
74538;SDS011;66042;51.090;-115.340;2023-08-31T03:24:59;31.40;;;20.20;;
74538;SDS011;66042;51.090;-115.340;2023-08-31T03:27:26;33.30;;;20.70;;
74538;SDS011;66042;51.090;-115.340;2023-08-31T03:29:53;36.60;;;20.20;;
74538;SDS011;66042;51.090;-115.340;2023-08-31T03:32:19;33.60;;;19.90;;
74538;SDS011;66042;51.090;-115.340;2023-08-31T03:34:48;31.00;;;19.20;;
74538;SDS011;66042;51.090;-115.340;2023-08-31T03:37:16;29.40;;;19.30;;
74538;SDS011;66042;51.090;-115.340;2023-08-31T03:39:50;33.20;;;19.40;;
74538;SDS011;66042;51.090;-115.340;2023-08-31T03:42:17;32.20;;;20.50;;
74538;SDS011;66042;51.090;-115.340;2023-08-31T03:44:44;32.90;;;20.50;;
74538;SDS011;66042;51.090;-115.340;2023-08-31T03:47:11;32.10;;;19.70;;
74538;SDS011;66042;51.090;-115.340;2023-08-31T03:49:38;35.30;;;20.80;;
74538;SDS011;66042;51.090;-115.340;2023-08-31T03:52:04;36.40;;;20.30;;
74538;SDS011;66042;51.090;-115.340;2023-08-31T03:54:31;33.70;;;20.10;;
74538;SDS011;66042;51.090;-115.340;2023-08-31T03:56:58;34.50;;;20.10;;
74538;SDS011;66042;51.090;-115.340;2023-08-31T03:59:25;30.20;;;19.40;;
74538;SDS011;66042;51.090;-115.340;2023-08-31T04:01:53;35.60;;;19.60;;
74538;SDS011;66042;51.090;-115.340;2023-08-31T04:04:23;36.50;;;20.60;;
74538;SDS011;66042;51.090;-115.340;2023-08-31T04:06:51;33.50;;;20.20;;
74538;SDS011;66042;51.090;-115.340;2023-08-31T04:09:17;34.10;;;20.60;;
74538;SDS011;66042;51.090;-115.340;2023-08-31T04:11:45;35.80;;;20.90;;
74538;SDS011;66042;51.090;-115.340;2023-08-31T04:14:12;31.70;;;19.90;;
74538;SDS011;66042;51.090;-115.340;2023-08-31T04:16:39;33.50;;;20.20;;
74538;SDS011;66042;51.090;-115.340;2023-08-31T04:19:06;33.60;;;19.50;;
74538;SDS011;66042;51.090;-115.340;2023-08-31T04:21:33;35.50;;;21.00;;
74538;SDS011;66042;51.090;-115.340;2023-08-31T04:24:00;33.70;;;19.70;;
74538;SDS011;66042;51.090;-115.340;2023-08-31T04:26:27;35.90;;;21.50;;
74538;SDS011;66042;51.090;-115.340;2023-08-31T04:28:55;36.20;;;20.00;;
74538;SDS011;66042;51.090;-115.340;2023-08-31T04:31:22;34.50;;;20.50;;
74538;SDS011;66042;51.090;-115.340;2023-08-31T04:33:49;32.00;;;20.00;;
74538;SDS011;66042;51.090;-115.340;2023-08-31T04:36:22;34.50;;;21.00;;
74538;SDS011;66042;51.090;-115.340;2023-08-31T04:38:49;32.80;;;20.70;;
74538;SDS011;66042;51.090;-115.340;2023-08-31T04:41:17;34.40;;;20.60;;
74538;SDS011;66042;51.090;-115.340;2023-08-31T04:43:44;31.10;;;19.50;;
74538;SDS011;66042;51.090;-115.340;2023-08-31T04:46:14;28.00;;;17.50;;
74538;SDS011;66042;51.090;-115.340;2023-08-31T04:48:41;25.90;;;16.70;;
74538;SDS011;66042;51.090;-115.340;2023-08-31T04:51:33;27.40;;;16.90;;
74538;SDS011;66042;51.090;-115.340;2023-08-31T04:54:02;30.70;;;17.40;;
74538;SDS011;66042;51.090;-115.340;2023-08-31T04:56:31;29.60;;;18.50;;
74538;SDS011;66042;51.090;-115.340;2023-08-31T04:59:00;31.90;;;18.60;;
74538;SDS011;66042;51.090;-115.340;2023-08-31T05:01:31;29.00;;;18.60;;
74538;SDS011;66042;51.090;-115.340;2023-08-31T05:03:57;31.40;;;18.40;;
74538;SDS011;66042;51.090;-115.340;2023-08-31T05:06:24;33.10;;;19.20;;
74538;SDS011;66042;51.090;-115.340;2023-08-31T05:08:51;29.30;;;18.70;;
74538;SDS011;66042;51.090;-115.340;2023-08-31T05:11:18;33.70;;;20.10;;
74538;SDS011;66042;51.090;-115.340;2023-08-31T05:13:46;29.60;;;18.30;;
74538;SDS011;66042;51.090;-115.340;2023-08-31T05:16:14;27.80;;;17.70;;
74538;SDS011;66042;51.090;-115.340;2023-08-31T05:18:41;29.50;;;18.20;;
74538;SDS011;66042;51.090;-115.340;2023-08-31T05:21:08;29.40;;;18.10;;
74538;SDS011;66042;51.090;-115.340;2023-08-31T05:23:35;32.10;;;18.50;;
74538;SDS011;66042;51.090;-115.340;2023-08-31T05:26:02;31.40;;;18.70;;
74538;SDS011;66042;51.090;-115.340;2023-08-31T05:28:29;31.10;;;19.00;;
74538;SDS011;66042;51.090;-115.340;2023-08-31T05:30:57;30.00;;;17.80;;
74538;SDS011;66042;51.090;-115.340;2023-08-31T05:33:24;28.20;;;17.40;;
74538;SDS011;66042;51.090;-115.340;2023-08-31T05:35:55;27.80;;;16.10;;
74538;SDS011;66042;51.090;-115.340;2023-08-31T05:38:22;27.30;;;17.40;;
74538;SDS011;66042;51.090;-115.340;2023-08-31T05:40:49;28.30;;;16.90;;
74538;SDS011;66042;51.090;-115.340;2023-08-31T05:43:16;26.80;;;16.80;;
74538;SDS011;66042;51.090;-115.340;2023-08-31T05:45:43;24.90;;;16.40;;
74538;SDS011;66042;51.090;-115.340;2023-08-31T05:48:10;25.00;;;16.00;;
74538;SDS011;66042;51.090;-115.340;2023-08-31T05:50:37;26.00;;;14.80;;
74538;SDS011;66042;51.090;-115.340;2023-08-31T05:53:05;22.70;;;14.40;;
74538;SDS011;66042;51.090;-115.340;2023-08-31T05:55:33;25.20;;;15.70;;
74538;SDS011;66042;51.090;-115.340;2023-08-31T05:58:01;25.00;;;14.90;;
74538;SDS011;66042;51.090;-115.340;2023-08-31T06:00:28;27.30;;;16.00;;
74538;SDS011;66042;51.090;-115.340;2023-08-31T06:02:55;25.50;;;15.80;;
74538;SDS011;66042;51.090;-115.340;2023-08-31T06:05:22;29.20;;;17.10;;
74538;SDS011;66042;51.090;-115.340;2023-08-31T06:07:49;28.20;;;16.60;;
74538;SDS011;66042;51.090;-115.340;2023-08-31T06:10:16;29.40;;;17.80;;
74538;SDS011;66042;51.090;-115.340;2023-08-31T06:12:43;28.90;;;17.90;;
74538;SDS011;66042;51.090;-115.340;2023-08-31T06:15:11;31.70;;;18.50;;
74538;SDS011;66042;51.090;-115.340;2023-08-31T06:17:38;28.60;;;17.30;;
74538;SDS011;66042;51.090;-115.340;2023-08-31T06:20:06;28.20;;;17.30;;
74538;SDS011;66042;51.090;-115.340;2023-08-31T06:22:34;30.60;;;18.30;;
74538;SDS011;66042;51.090;-115.340;2023-08-31T06:25:01;29.80;;;17.30;;
74538;SDS011;66042;51.090;-115.340;2023-08-31T06:27:30;25.20;;;15.90;;
74538;SDS011;66042;51.090;-115.340;2023-08-31T06:29:56;29.60;;;17.00;;
74538;SDS011;66042;51.090;-115.340;2023-08-31T06:32:23;27.70;;;15.80;;
74538;SDS011;66042;51.090;-115.340;2023-08-31T06:34:50;27.90;;;16.90;;
74538;SDS011;66042;51.090;-115.340;2023-08-31T06:37:17;27.60;;;17.00;;
74538;SDS011;66042;51.090;-115.340;2023-08-31T06:39:46;24.30;;;14.80;;
74538;SDS011;66042;51.090;-115.340;2023-08-31T06:42:13;26.50;;;16.80;;
74538;SDS011;66042;51.090;-115.340;2023-08-31T06:44:40;27.60;;;16.10;;
74538;SDS011;66042;51.090;-115.340;2023-08-31T06:47:06;26.20;;;16.40;;
74538;SDS011;66042;51.090;-115.340;2023-08-31T06:49:33;24.70;;;15.30;;
74538;SDS011;66042;51.090;-115.340;2023-08-31T06:52:01;24.80;;;15.20;;
74538;SDS011;66042;51.090;-115.340;2023-08-31T06:54:29;28.60;;;16.40;;
74538;SDS011;66042;51.090;-115.340;2023-08-31T06:56:55;25.30;;;15.70;;
74538;SDS011;66042;51.090;-115.340;2023-08-31T06:59:22;28.70;;;17.50;;
74538;SDS011;66042;51.090;-115.340;2023-08-31T07:01:50;25.70;;;16.30;;
74538;SDS011;66042;51.090;-115.340;2023-08-31T07:04:17;24.70;;;15.50;;
74538;SDS011;66042;51.090;-115.340;2023-08-31T07:06:44;25.30;;;15.50;;
74538;SDS011;66042;51.090;-115.340;2023-08-31T07:09:10;24.60;;;15.70;;
74538;SDS011;66042;51.090;-115.340;2023-08-31T07:11:38;26.40;;;15.50;;
74538;SDS011;66042;51.090;-115.340;2023-08-31T07:14:05;27.10;;;17.00;;
74538;SDS011;66042;51.090;-115.340;2023-08-31T07:16:32;31.00;;;18.60;;
74538;SDS011;66042;51.090;-115.340;2023-08-31T07:18:59;31.10;;;17.70;;
74538;SDS011;66042;51.090;-115.340;2023-08-31T07:21:26;26.90;;;16.50;;
74538;SDS011;66042;51.090;-115.340;2023-08-31T07:23:53;30.40;;;17.50;;
74538;SDS011;66042;51.090;-115.340;2023-08-31T07:26:21;26.40;;;17.00;;
74538;SDS011;66042;51.090;-115.340;2023-08-31T07:28:48;31.40;;;17.40;;
74538;SDS011;66042;51.090;-115.340;2023-08-31T07:31:15;28.00;;;17.70;;
74538;SDS011;66042;51.090;-115.340;2023-08-31T07:33:42;30.10;;;18.10;;
74538;SDS011;66042;51.090;-115.340;2023-08-31T07:36:09;27.70;;;18.00;;
74538;SDS011;66042;51.090;-115.340;2023-08-31T07:38:36;29.90;;;18.50;;
74538;SDS011;66042;51.090;-115.340;2023-08-31T07:41:03;31.40;;;19.10;;
74538;SDS011;66042;51.090;-115.340;2023-08-31T07:43:30;31.10;;;19.00;;
74538;SDS011;66042;51.090;-115.340;2023-08-31T07:45:57;32.00;;;19.00;;
74538;SDS011;66042;51.090;-115.340;2023-08-31T07:48:24;31.60;;;19.50;;
74538;SDS011;66042;51.090;-115.340;2023-08-31T07:50:51;33.50;;;19.30;;
74538;SDS011;66042;51.090;-115.340;2023-08-31T07:53:19;29.40;;;18.80;;
74538;SDS011;66042;51.090;-115.340;2023-08-31T07:55:56;32.80;;;18.80;;
74538;SDS011;66042;51.090;-115.340;2023-08-31T07:58:23;26.70;;;16.90;;
74538;SDS011;66042;51.090;-115.340;2023-08-31T08:00:53;29.70;;;18.00;;
74538;SDS011;66042;51.090;-115.340;2023-08-31T08:03:24;31.50;;;17.70;;
74538;SDS011;66042;51.090;-115.340;2023-08-31T08:05:51;28.30;;;16.70;;
74538;SDS011;66042;51.090;-115.340;2023-08-31T08:08:18;31.80;;;19.30;;
74538;SDS011;66042;51.090;-115.340;2023-08-31T08:10:45;30.20;;;18.80;;
74538;SDS011;66042;51.090;-115.340;2023-08-31T08:13:12;32.90;;;19.30;;
74538;SDS011;66042;51.090;-115.340;2023-08-31T08:15:39;31.80;;;18.70;;
74538;SDS011;66042;51.090;-115.340;2023-08-31T08:18:06;33.90;;;18.90;;
74538;SDS011;66042;51.090;-115.340;2023-08-31T08:20:34;30.90;;;18.70;;
74538;SDS011;66042;51.090;-115.340;2023-08-31T08:23:02;30.80;;;19.00;;
74538;SDS011;66042;51.090;-115.340;2023-08-31T08:25:29;29.10;;;17.50;;
74538;SDS011;66042;51.090;-115.340;2023-08-31T08:27:56;33.40;;;19.80;;
74538;SDS011;66042;51.090;-115.340;2023-08-31T08:30:23;32.20;;;18.70;;
74538;SDS011;66042;51.090;-115.340;2023-08-31T08:32:51;31.30;;;19.40;;
74538;SDS011;66042;51.090;-115.340;2023-08-31T08:35:18;32.60;;;19.30;;
74538;SDS011;66042;51.090;-115.340;2023-08-31T08:37:45;31.00;;;19.00;;
74538;SDS011;66042;51.090;-115.340;2023-08-31T08:40:12;31.90;;;19.00;;
74538;SDS011;66042;51.090;-115.340;2023-08-31T08:42:41;33.90;;;19.70;;
74538;SDS011;66042;51.090;-115.340;2023-08-31T08:45:15;30.20;;;18.80;;
74538;SDS011;66042;51.090;-115.340;2023-08-31T08:47:43;31.60;;;19.10;;
74538;SDS011;66042;51.090;-115.340;2023-08-31T08:50:13;31.40;;;18.90;;
74538;SDS011;66042;51.090;-115.340;2023-08-31T08:52:42;30.50;;;17.90;;
74538;SDS011;66042;51.090;-115.340;2023-08-31T08:55:10;32.30;;;17.90;;
74538;SDS011;66042;51.090;-115.340;2023-08-31T08:57:37;29.70;;;17.80;;
74538;SDS011;66042;51.090;-115.340;2023-08-31T09:00:04;29.30;;;17.10;;
74538;SDS011;66042;51.090;-115.340;2023-08-31T09:02:32;30.30;;;18.30;;
74538;SDS011;66042;51.090;-115.340;2023-08-31T09:04:59;31.20;;;18.40;;
74538;SDS011;66042;51.090;-115.340;2023-08-31T09:07:29;30.50;;;17.90;;
74538;SDS011;66042;51.090;-115.340;2023-08-31T09:10:02;29.90;;;18.40;;
74538;SDS011;66042;51.090;-115.340;2023-08-31T09:12:29;30.40;;;18.20;;
74538;SDS011;66042;51.090;-115.340;2023-08-31T09:15:02;30.30;;;18.40;;
74538;SDS011;66042;51.090;-115.340;2023-08-31T09:17:41;31.30;;;18.10;;
74538;SDS011;66042;51.090;-115.340;2023-08-31T09:20:13;32.20;;;17.20;;
74538;SDS011;66042;51.090;-115.340;2023-08-31T09:22:42;33.00;;;18.40;;
74538;SDS011;66042;51.090;-115.340;2023-08-31T09:25:14;26.20;;;15.80;;
74538;SDS011;66042;51.090;-115.340;2023-08-31T09:27:41;31.70;;;18.20;;
74538;SDS011;66042;51.090;-115.340;2023-08-31T09:30:11;28.80;;;17.90;;
74538;SDS011;66042;51.090;-115.340;2023-08-31T09:32:38;29.60;;;17.40;;
74538;SDS011;66042;51.090;-115.340;2023-08-31T09:35:08;30.30;;;17.50;;
74538;SDS011;66042;51.090;-115.340;2023-08-31T09:37:36;29.80;;;17.90;;
74538;SDS011;66042;51.090;-115.340;2023-08-31T09:40:03;31.60;;;19.30;;
74538;SDS011;66042;51.090;-115.340;2023-08-31T09:42:37;30.20;;;19.10;;
74538;SDS011;66042;51.090;-115.340;2023-08-31T09:45:05;30.80;;;17.70;;
74538;SDS011;66042;51.090;-115.340;2023-08-31T09:47:33;32.80;;;18.20;;
74538;SDS011;66042;51.090;-115.340;2023-08-31T09:50:02;29.80;;;18.20;;
74538;SDS011;66042;51.090;-115.340;2023-08-31T09:52:30;32.20;;;18.20;;
74538;SDS011;66042;51.090;-115.340;2023-08-31T09:54:58;31.40;;;18.80;;
74538;SDS011;66042;51.090;-115.340;2023-08-31T09:57:28;32.00;;;18.60;;
74538;SDS011;66042;51.090;-115.340;2023-08-31T09:59:55;28.10;;;17.50;;
74538;SDS011;66042;51.090;-115.340;2023-08-31T10:02:22;31.20;;;18.10;;
74538;SDS011;66042;51.090;-115.340;2023-08-31T10:04:49;29.60;;;17.90;;
74538;SDS011;66042;51.090;-115.340;2023-08-31T10:07:19;29.90;;;18.10;;
74538;SDS011;66042;51.090;-115.340;2023-08-31T10:09:47;28.70;;;16.80;;
74538;SDS011;66042;51.090;-115.340;2023-08-31T10:12:15;29.70;;;18.10;;
74538;SDS011;66042;51.090;-115.340;2023-08-31T10:14:43;28.70;;;17.50;;
74538;SDS011;66042;51.090;-115.340;2023-08-31T10:17:13;33.00;;;18.90;;
74538;SDS011;66042;51.090;-115.340;2023-08-31T10:19:40;28.20;;;17.70;;
74538;SDS011;66042;51.090;-115.340;2023-08-31T10:22:08;29.50;;;17.10;;
74538;SDS011;66042;51.090;-115.340;2023-08-31T10:27:37;31.90;;;18.60;;
74538;SDS011;66042;51.090;-115.340;2023-08-31T10:35:55;26.70;;;16.10;;
74538;SDS011;66042;51.090;-115.340;2023-08-31T10:38:30;28.50;;;18.70;;
74538;SDS011;66042;51.090;-115.340;2023-08-31T10:46:33;33.20;;;18.30;;
74538;SDS011;66042;51.090;-115.340;2023-08-31T10:51:42;31.30;;;18.40;;
74538;SDS011;66042;51.090;-115.340;2023-08-31T10:56:52;30.80;;;18.00;;
74538;SDS011;66042;51.090;-115.340;2023-08-31T10:59:49;31.40;;;18.40;;
74538;SDS011;66042;51.090;-115.340;2023-08-31T11:02:38;34.00;;;19.40;;
74538;SDS011;66042;51.090;-115.340;2023-08-31T11:05:11;31.00;;;18.30;;
74538;SDS011;66042;51.090;-115.340;2023-08-31T11:07:49;30.90;;;18.20;;
74538;SDS011;66042;51.090;-115.340;2023-08-31T11:10:20;31.90;;;18.00;;
74538;SDS011;66042;51.090;-115.340;2023-08-31T11:12:51;28.90;;;17.30;;
74538;SDS011;66042;51.090;-115.340;2023-08-31T11:15:20;31.80;;;18.10;;
74538;SDS011;66042;51.090;-115.340;2023-08-31T11:17:51;30.10;;;18.40;;
74538;SDS011;66042;51.090;-115.340;2023-08-31T11:20:21;28.00;;;18.00;;
74538;SDS011;66042;51.090;-115.340;2023-08-31T11:22:57;32.10;;;18.10;;
74538;SDS011;66042;51.090;-115.340;2023-08-31T11:25:24;27.20;;;16.70;;
74538;SDS011;66042;51.090;-115.340;2023-08-31T11:27:57;31.00;;;18.80;;
74538;SDS011;66042;51.090;-115.340;2023-08-31T11:30:29;30.00;;;17.80;;
74538;SDS011;66042;51.090;-115.340;2023-08-31T11:33:07;31.60;;;18.40;;
74538;SDS011;66042;51.090;-115.340;2023-08-31T11:35:38;29.80;;;17.90;;
74538;SDS011;66042;51.090;-115.340;2023-08-31T11:38:08;30.00;;;18.00;;
74538;SDS011;66042;51.090;-115.340;2023-08-31T11:40:36;29.30;;;17.50;;
74538;SDS011;66042;51.090;-115.340;2023-08-31T11:43:04;31.20;;;18.40;;
74538;SDS011;66042;51.090;-115.340;2023-08-31T11:45:36;28.80;;;17.60;;
74538;SDS011;66042;51.090;-115.340;2023-08-31T11:48:05;28.70;;;17.00;;
74538;SDS011;66042;51.090;-115.340;2023-08-31T11:50:33;27.90;;;16.00;;
74538;SDS011;66042;51.090;-115.340;2023-08-31T11:53:00;29.70;;;16.60;;
74538;SDS011;66042;51.090;-115.340;2023-08-31T11:55:27;31.00;;;17.60;;
74538;SDS011;66042;51.090;-115.340;2023-08-31T11:57:55;28.70;;;17.20;;
74538;SDS011;66042;51.090;-115.340;2023-08-31T12:00:22;27.90;;;17.30;;
74538;SDS011;66042;51.090;-115.340;2023-08-31T12:03:00;30.10;;;18.10;;
74538;SDS011;66042;51.090;-115.340;2023-08-31T12:05:28;35.10;;;19.00;;
74538;SDS011;66042;51.090;-115.340;2023-08-31T12:07:56;30.30;;;17.50;;
74538;SDS011;66042;51.090;-115.340;2023-08-31T12:10:26;30.90;;;17.50;;
74538;SDS011;66042;51.090;-115.340;2023-08-31T12:12:53;30.20;;;17.70;;
74538;SDS011;66042;51.090;-115.340;2023-08-31T12:15:22;30.30;;;18.60;;
74538;SDS011;66042;51.090;-115.340;2023-08-31T12:17:48;30.60;;;18.30;;
74538;SDS011;66042;51.090;-115.340;2023-08-31T12:20:25;31.70;;;18.60;;
74538;SDS011;66042;51.090;-115.340;2023-08-31T12:22:52;35.40;;;18.70;;
74538;SDS011;66042;51.090;-115.340;2023-08-31T12:25:22;31.50;;;19.00;;
74538;SDS011;66042;51.090;-115.340;2023-08-31T12:27:49;33.00;;;19.90;;
74538;SDS011;66042;51.090;-115.340;2023-08-31T12:30:16;34.40;;;19.80;;
74538;SDS011;66042;51.090;-115.340;2023-08-31T12:32:43;31.50;;;18.50;;
74538;SDS011;66042;51.090;-115.340;2023-08-31T12:35:10;31.20;;;18.70;;
74538;SDS011;66042;51.090;-115.340;2023-08-31T12:37:37;33.40;;;19.40;;
74538;SDS011;66042;51.090;-115.340;2023-08-31T12:40:05;33.10;;;19.00;;
74538;SDS011;66042;51.090;-115.340;2023-08-31T12:42:35;34.80;;;18.90;;
74538;SDS011;66042;51.090;-115.340;2023-08-31T12:45:02;32.80;;;19.30;;
74538;SDS011;66042;51.090;-115.340;2023-08-31T12:47:31;36.00;;;19.30;;
74538;SDS011;66042;51.090;-115.340;2023-08-31T12:49:58;31.60;;;18.30;;
74538;SDS011;66042;51.090;-115.340;2023-08-31T12:52:24;32.50;;;19.30;;
74538;SDS011;66042;51.090;-115.340;2023-08-31T12:54:51;35.10;;;19.20;;
74538;SDS011;66042;51.090;-115.340;2023-08-31T12:57:18;33.20;;;18.10;;
74538;SDS011;66042;51.090;-115.340;2023-08-31T12:59:46;31.80;;;18.20;;
74538;SDS011;66042;51.090;-115.340;2023-08-31T13:02:12;31.50;;;18.80;;
74538;SDS011;66042;51.090;-115.340;2023-08-31T13:04:39;32.90;;;18.90;;
74538;SDS011;66042;51.090;-115.340;2023-08-31T13:07:06;35.10;;;17.70;;
74538;SDS011;66042;51.090;-115.340;2023-08-31T13:09:32;31.20;;;18.70;;
74538;SDS011;66042;51.090;-115.340;2023-08-31T13:11:59;30.50;;;18.20;;
74538;SDS011;66042;51.090;-115.340;2023-08-31T13:14:28;34.40;;;19.20;;
74538;SDS011;66042;51.090;-115.340;2023-08-31T13:16:55;36.60;;;19.90;;
74538;SDS011;66042;51.090;-115.340;2023-08-31T13:19:22;35.20;;;19.40;;
74538;SDS011;66042;51.090;-115.340;2023-08-31T13:21:48;38.90;;;20.30;;
74538;SDS011;66042;51.090;-115.340;2023-08-31T13:24:15;35.90;;;20.20;;
74538;SDS011;66042;51.090;-115.340;2023-08-31T13:26:42;32.50;;;19.70;;
74538;SDS011;66042;51.090;-115.340;2023-08-31T13:29:13;33.80;;;18.80;;
74538;SDS011;66042;51.090;-115.340;2023-08-31T13:31:40;32.50;;;19.00;;
74538;SDS011;66042;51.090;-115.340;2023-08-31T13:34:08;31.60;;;19.10;;
74538;SDS011;66042;51.090;-115.340;2023-08-31T13:36:36;31.70;;;18.50;;
74538;SDS011;66042;51.090;-115.340;2023-08-31T13:39:03;34.10;;;19.30;;
74538;SDS011;66042;51.090;-115.340;2023-08-31T13:41:30;34.40;;;19.20;;
74538;SDS011;66042;51.090;-115.340;2023-08-31T13:43:56;33.50;;;20.30;;
74538;SDS011;66042;51.090;-115.340;2023-08-31T13:46:23;35.00;;;18.90;;
74538;SDS011;66042;51.090;-115.340;2023-08-31T13:48:49;35.50;;;19.00;;
74538;SDS011;66042;51.090;-115.340;2023-08-31T13:51:16;34.40;;;18.30;;
74538;SDS011;66042;51.090;-115.340;2023-08-31T13:53:43;33.80;;;18.90;;
74538;SDS011;66042;51.090;-115.340;2023-08-31T13:56:12;35.60;;;19.50;;
74538;SDS011;66042;51.090;-115.340;2023-08-31T13:58:39;35.60;;;18.70;;
74538;SDS011;66042;51.090;-115.340;2023-08-31T14:01:06;36.70;;;20.40;;
74538;SDS011;66042;51.090;-115.340;2023-08-31T14:03:33;34.50;;;20.30;;
74538;SDS011;66042;51.090;-115.340;2023-08-31T14:06:00;33.00;;;19.40;;
74538;SDS011;66042;51.090;-115.340;2023-08-31T14:08:26;37.20;;;20.40;;
74538;SDS011;66042;51.090;-115.340;2023-08-31T14:10:53;35.90;;;18.80;;
74538;SDS011;66042;51.090;-115.340;2023-08-31T14:13:22;34.90;;;19.50;;
74538;SDS011;66042;51.090;-115.340;2023-08-31T14:15:49;34.80;;;19.70;;
74538;SDS011;66042;51.090;-115.340;2023-08-31T14:18:16;33.50;;;19.20;;
74538;SDS011;66042;51.090;-115.340;2023-08-31T14:20:43;32.20;;;19.20;;
74538;SDS011;66042;51.090;-115.340;2023-08-31T14:23:10;38.20;;;19.80;;